sensor_id;sensor_type;location;lat;lon;timestamp;pressure;altitude;pressure_sealevel;temperature;humidity
24788;BME280;12883;52.662;5.196;2023-07-24T00:01:55;100255.69;;;18.23;100.00
24788;BME280;12883;52.662;5.196;2023-07-24T00:04:20;100296.88;;;18.38;100.00
24788;BME280;12883;52.662;5.196;2023-07-24T00:06:45;100300.41;;;18.39;100.00
24788;BME280;12883;52.662;5.196;2023-07-24T00:09:11;100303.88;;;18.34;100.00
24788;BME280;12883;52.662;5.196;2023-07-24T00:11:36;100295.28;;;18.32;100.00
24788;BME280;12883;52.662;5.196;2023-07-24T00:14:01;100298.44;;;18.29;100.00
24788;BME280;12883;52.662;5.196;2023-07-24T00:16:27;100301.13;;;18.29;100.00
24788;BME280;12883;52.662;5.196;2023-07-24T00:18:52;100307.81;;;18.27;100.00
24788;BME280;12883;52.662;5.196;2023-07-24T00:21:17;100307.00;;;18.21;100.00
24788;BME280;12883;52.662;5.196;2023-07-24T00:23:43;100300.53;;;18.22;100.00
24788;BME280;12883;52.662;5.196;2023-07-24T00:26:08;100304.84;;;18.23;100.00
24788;BME280;12883;52.662;5.196;2023-07-24T00:28:33;100294.31;;;18.12;100.00
24788;BME280;12883;52.662;5.196;2023-07-24T00:30:59;100301.53;;;18.06;100.00
24788;BME280;12883;52.662;5.196;2023-07-24T00:33:24;100299.94;;;18.10;100.00
24788;BME280;12883;52.662;5.196;2023-07-24T00:35:49;100305.06;;;18.12;100.00
24788;BME280;12883;52.662;5.196;2023-07-24T00:38:15;100280.78;;;17.92;100.00
24788;BME280;12883;52.662;5.196;2023-07-24T00:40:40;100317.94;;;18.10;100.00
24788;BME280;12883;52.662;5.196;2023-07-24T00:43:05;100301.50;;;18.01;100.00
24788;BME280;12883;52.662;5.196;2023-07-24T00:45:31;100303.16;;;18.07;100.00
24788;BME280;12883;52.662;5.196;2023-07-24T00:47:58;100177.06;;;17.29;100.00
24788;BME280;12883;52.662;5.196;2023-07-24T00:50:24;100247.66;;;17.71;100.00
24788;BME280;12883;52.662;5.196;2023-07-24T00:52:50;100278.38;;;17.95;100.00
24788;BME280;12883;52.662;5.196;2023-07-24T00:55:15;100271.34;;;17.89;100.00
24788;BME280;12883;52.662;5.196;2023-07-24T00:57:42;100211.53;;;17.47;100.00
24788;BME280;12883;52.662;5.196;2023-07-24T01:00:09;100260.63;;;17.89;100.00
24788;BME280;12883;52.662;5.196;2023-07-24T01:02:35;100253.06;;;17.81;100.00
24788;BME280;12883;52.662;5.196;2023-07-24T01:05:01;100241.00;;;17.84;100.00
24788;BME280;12883;52.662;5.196;2023-07-24T01:07:26;100216.47;;;17.65;100.00
24788;BME280;12883;52.662;5.196;2023-07-24T01:09:52;100237.50;;;17.78;100.00
24788;BME280;12883;52.662;5.196;2023-07-24T01:12:25;100213.81;;;17.70;100.00
24788;BME280;12883;52.662;5.196;2023-07-24T01:14:58;100221.31;;;17.63;100.00
24788;BME280;12883;52.662;5.196;2023-07-24T01:17:28;100230.00;;;17.85;100.00
24788;BME280;12883;52.662;5.196;2023-07-24T01:19:58;100190.06;;;17.47;100.00
24788;BME280;12883;52.662;5.196;2023-07-24T01:22:32;100213.34;;;17.78;100.00
24788;BME280;12883;52.662;5.196;2023-07-24T01:25:14;100231.09;;;17.84;100.00
24788;BME280;12883;52.662;5.196;2023-07-24T01:27:45;100230.56;;;17.87;100.00
24788;BME280;12883;52.662;5.196;2023-07-24T01:30:11;100232.13;;;17.83;100.00
24788;BME280;12883;52.662;5.196;2023-07-24T01:32:37;100214.03;;;17.64;100.00
24788;BME280;12883;52.662;5.196;2023-07-24T01:35:04;100236.44;;;17.84;100.00
24788;BME280;12883;52.662;5.196;2023-07-24T01:37:30;100236.97;;;17.81;100.00
24788;BME280;12883;52.662;5.196;2023-07-24T01:39:56;100190.91;;;17.53;100.00
24788;BME280;12883;52.662;5.196;2023-07-24T01:42:23;100238.06;;;17.85;100.00
24788;BME280;12883;52.662;5.196;2023-07-24T01:44:52;100241.28;;;17.87;100.00
24788;BME280;12883;52.662;5.196;2023-07-24T01:47:18;100230.59;;;17.92;100.00
24788;BME280;12883;52.662;5.196;2023-07-24T01:49:43;100227.88;;;17.87;100.00
24788;BME280;12883;52.662;5.196;2023-07-24T01:52:08;100214.97;;;17.84;100.00
24788;BME280;12883;52.662;5.196;2023-07-24T01:54:34;100210.41;;;17.85;100.00
24788;BME280;12883;52.662;5.196;2023-07-24T01:56:59;100189.09;;;17.68;100.00
24788;BME280;12883;52.662;5.196;2023-07-24T01:59:24;100216.91;;;17.94;100.00
24788;BME280;12883;52.662;5.196;2023-07-24T02:01:50;100202.34;;;17.85;100.00
24788;BME280;12883;52.662;5.196;2023-07-24T02:04:15;100222.53;;;17.92;100.00
24788;BME280;12883;52.662;5.196;2023-07-24T02:06:40;100208.28;;;17.92;100.00
24788;BME280;12883;52.662;5.196;2023-07-24T02:09:06;100179.72;;;17.71;100.00
24788;BME280;12883;52.662;5.196;2023-07-24T02:11:31;100213.66;;;17.92;100.00
24788;BME280;12883;52.662;5.196;2023-07-24T02:13:56;100202.66;;;17.93;100.00
24788;BME280;12883;52.662;5.196;2023-07-24T02:16:22;100192.94;;;17.82;100.00
24788;BME280;12883;52.662;5.196;2023-07-24T02:18:47;100197.72;;;17.70;100.00
24788;BME280;12883;52.662;5.196;2023-07-24T02:21:12;100198.13;;;17.94;100.00
24788;BME280;12883;52.662;5.196;2023-07-24T02:23:38;100194.06;;;17.96;100.00
24788;BME280;12883;52.662;5.196;2023-07-24T02:26:03;100196.53;;;18.03;100.00
24788;BME280;12883;52.662;5.196;2023-07-24T02:28:28;100157.47;;;17.75;100.00
24788;BME280;12883;52.662;5.196;2023-07-24T02:30:54;100162.91;;;17.85;100.00
24788;BME280;12883;52.662;5.196;2023-07-24T02:33:22;100163.97;;;17.89;100.00
24788;BME280;12883;52.662;5.196;2023-07-24T02:35:49;100127.66;;;17.72;100.00
24788;BME280;12883;52.662;5.196;2023-07-24T02:38:16;100147.84;;;17.79;100.00
24788;BME280;12883;52.662;5.196;2023-07-24T02:40:41;100175.91;;;18.13;100.00
24788;BME280;12883;52.662;5.196;2023-07-24T02:43:07;100176.97;;;18.17;100.00
24788;BME280;12883;52.662;5.196;2023-07-24T02:45:37;100179.66;;;18.17;100.00
24788;BME280;12883;52.662;5.196;2023-07-24T02:48:03;100180.72;;;18.16;100.00
24788;BME280;12883;52.662;5.196;2023-07-24T02:50:28;100178.31;;;18.15;100.00
24788;BME280;12883;52.662;5.196;2023-07-24T02:52:54;100173.22;;;18.13;100.00
24788;BME280;12883;52.662;5.196;2023-07-24T02:55:19;100187.19;;;18.20;100.00
24788;BME280;12883;52.662;5.196;2023-07-24T02:57:44;100197.13;;;18.20;100.00
24788;BME280;12883;52.662;5.196;2023-07-24T03:00:10;100193.06;;;18.07;100.00
24788;BME280;12883;52.662;5.196;2023-07-24T03:02:35;100185.03;;;18.17;100.00
24788;BME280;12883;52.662;5.196;2023-07-24T03:05:01;100185.88;;;18.23;100.00
24788;BME280;12883;52.662;5.196;2023-07-24T03:07:27;100198.47;;;18.22;100.00
24788;BME280;12883;52.662;5.196;2023-07-24T03:09:52;100198.22;;;18.24;100.00
24788;BME280;12883;52.662;5.196;2023-07-24T03:12:17;100144.94;;;17.91;100.00
24788;BME280;12883;52.662;5.196;2023-07-24T03:14:43;100182.91;;;18.24;100.00
24788;BME280;12883;52.662;5.196;2023-07-24T03:17:08;100185.31;;;18.21;100.00
24788;BME280;12883;52.662;5.196;2023-07-24T03:19:33;100175.13;;;18.23;100.00
24788;BME280;12883;52.662;5.196;2023-07-24T03:21:59;100172.16;;;18.19;100.00
24788;BME280;12883;52.662;5.196;2023-07-24T03:24:24;100179.94;;;18.26;100.00
24788;BME280;12883;52.662;5.196;2023-07-24T03:26:49;100178.88;;;18.22;100.00
24788;BME280;12883;52.662;5.196;2023-07-24T03:29:15;100172.16;;;18.24;100.00
24788;BME280;12883;52.662;5.196;2023-07-24T03:31:40;100172.69;;;18.21;100.00
24788;BME280;12883;52.662;5.196;2023-07-24T03:34:05;100172.44;;;18.23;100.00
24788;BME280;12883;52.662;5.196;2023-07-24T03:36:31;100164.66;;;18.26;100.00
24788;BME280;12883;52.662;5.196;2023-07-24T03:38:56;100099.81;;;17.88;100.00
24788;BME280;12883;52.662;5.196;2023-07-24T03:41:21;100160.91;;;18.27;100.00
24788;BME280;12883;52.662;5.196;2023-07-24T03:43:47;100161.41;;;18.24;100.00
24788;BME280;12883;52.662;5.196;2023-07-24T03:46:12;100148.25;;;18.23;100.00
24788;BME280;12883;52.662;5.196;2023-07-24T03:48:37;100153.34;;;18.19;100.00
24788;BME280;12883;52.662;5.196;2023-07-24T03:51:02;100144.72;;;18.17;100.00
24788;BME280;12883;52.662;5.196;2023-07-24T03:53:28;100149.06;;;18.23;100.00
24788;BME280;12883;52.662;5.196;2023-07-24T03:55:54;100157.66;;;18.25;100.00
24788;BME280;12883;52.662;5.196;2023-07-24T03:58:19;100142.63;;;18.19;100.00
24788;BME280;12883;52.662;5.196;2023-07-24T04:00:45;100158.19;;;18.22;100.00
24788;BME280;12883;52.662;5.196;2023-07-24T04:03:11;100158.44;;;18.21;100.00
24788;BME280;12883;52.662;5.196;2023-07-24T04:05:36;100160.88;;;18.22;100.00
24788;BME280;12883;52.662;5.196;2023-07-24T04:08:02;100086.38;;;17.83;100.00
24788;BME280;12883;52.662;5.196;2023-07-24T04:10:28;100113.00;;;17.99;100.00
24788;BME280;12883;52.662;5.196;2023-07-24T04:12:54;100148.53;;;18.21;100.00
24788;BME280;12883;52.662;5.196;2023-07-24T04:15:19;100130.75;;;18.05;100.00
24788;BME280;12883;52.662;5.196;2023-07-24T04:17:45;100144.19;;;18.15;100.00
24788;BME280;12883;52.662;5.196;2023-07-24T04:20:10;100157.38;;;18.27;100.00
24788;BME280;12883;52.662;5.196;2023-07-24T04:22:36;100168.69;;;18.29;100.00
24788;BME280;12883;52.662;5.196;2023-07-24T04:25:01;100156.38;;;18.33;100.00
24788;BME280;12883;52.662;5.196;2023-07-24T04:27:26;100157.66;;;18.25;100.00
24788;BME280;12883;52.662;5.196;2023-07-24T04:29:52;100169.00;;;18.32;100.00
24788;BME280;12883;52.662;5.196;2023-07-24T04:32:17;100158.25;;;18.37;100.00
24788;BME280;12883;52.662;5.196;2023-07-24T04:34:42;100126.47;;;18.14;100.00
24788;BME280;12883;52.662;5.196;2023-07-24T04:37:08;100158.81;;;18.39;100.00
24788;BME280;12883;52.662;5.196;2023-07-24T04:39:33;100157.16;;;18.38;100.00
24788;BME280;12883;52.662;5.196;2023-07-24T04:41:59;100134.56;;;18.19;100.00
24788;BME280;12883;52.662;5.196;2023-07-24T04:44:24;100156.38;;;18.38;100.00
24788;BME280;12883;52.662;5.196;2023-07-24T04:46:49;100159.84;;;18.38;100.00
24788;BME280;12883;52.662;5.196;2023-07-24T04:49:15;100136.16;;;18.20;100.00
24788;BME280;12883;52.662;5.196;2023-07-24T04:51:41;100159.31;;;18.36;100.00
24788;BME280;12883;52.662;5.196;2023-07-24T04:54:06;100160.94;;;18.37;100.00
24788;BME280;12883;52.662;5.196;2023-07-24T04:56:31;100164.47;;;18.43;100.00
24788;BME280;12883;52.662;5.196;2023-07-24T04:58:57;100153.44;;;18.39;100.00
24788;BME280;12883;52.662;5.196;2023-07-24T05:01:22;100159.09;;;18.43;100.00
24788;BME280;12883;52.662;5.196;2023-07-24T05:03:47;100151.00;;;18.38;100.00
24788;BME280;12883;52.662;5.196;2023-07-24T05:06:13;100157.72;;;18.45;100.00
24788;BME280;12883;52.662;5.196;2023-07-24T05:08:38;100152.34;;;18.45;100.00
24788;BME280;12883;52.662;5.196;2023-07-24T05:11:04;100131.06;;;18.24;100.00
24788;BME280;12883;52.662;5.196;2023-07-24T05:13:29;100148.63;;;18.46;100.00
24788;BME280;12883;52.662;5.196;2023-07-24T05:15:54;100146.47;;;18.48;100.00
24788;BME280;12883;52.662;5.196;2023-07-24T05:18:20;100127.63;;;18.33;100.00
24788;BME280;12883;52.662;5.196;2023-07-24T05:20:46;100099.91;;;18.23;100.00
24788;BME280;12883;52.662;5.196;2023-07-24T05:23:12;100155.06;;;18.50;100.00
24788;BME280;12883;52.662;5.196;2023-07-24T05:25:38;100143.78;;;18.48;100.00
24788;BME280;12883;52.662;5.196;2023-07-24T05:28:03;100154.53;;;18.53;100.00
24788;BME280;12883;52.662;5.196;2023-07-24T05:30:28;100148.06;;;18.59;100.00
24788;BME280;12883;52.662;5.196;2023-07-24T05:32:54;100151.84;;;18.58;100.00
24788;BME280;12883;52.662;5.196;2023-07-24T05:35:19;100145.94;;;18.56;100.00
24788;BME280;12883;52.662;5.196;2023-07-24T05:37:44;100152.91;;;18.57;100.00
24788;BME280;12883;52.662;5.196;2023-07-24T05:40:10;100142.72;;;18.54;100.00
24788;BME280;12883;52.662;5.196;2023-07-24T05:42:36;100161.53;;;18.64;100.00
24788;BME280;12883;52.662;5.196;2023-07-24T05:45:07;100154.25;;;18.60;100.00
24788;BME280;12883;52.662;5.196;2023-07-24T05:47:32;100162.59;;;18.63;100.00
24788;BME280;12883;52.662;5.196;2023-07-24T05:49:58;100163.41;;;18.69;100.00
24788;BME280;12883;52.662;5.196;2023-07-24T05:52:23;100159.63;;;18.70;100.00
24788;BME280;12883;52.662;5.196;2023-07-24T05:54:48;100151.31;;;18.61;100.00
24788;BME280;12883;52.662;5.196;2023-07-24T05:57:14;100160.44;;;18.65;100.00
24788;BME280;12883;52.662;5.196;2023-07-24T05:59:39;100095.09;;;18.30;100.00
24788;BME280;12883;52.662;5.196;2023-07-24T06:02:05;100125.22;;;18.52;100.00
24788;BME280;12883;52.662;5.196;2023-07-24T06:04:30;100153.75;;;18.73;100.00
24788;BME280;12883;52.662;5.196;2023-07-24T06:06:56;100154.53;;;18.73;100.00
24788;BME280;12883;52.662;5.196;2023-07-24T06:09:21;100138.94;;;18.65;100.00
24788;BME280;12883;52.662;5.196;2023-07-24T06:11:46;100156.44;;;18.78;100.00
24788;BME280;12883;52.662;5.196;2023-07-24T06:14:12;100153.47;;;18.74;100.00
24788;BME280;12883;52.662;5.196;2023-07-24T06:16:37;100127.13;;;18.61;100.00
24788;BME280;12883;52.662;5.196;2023-07-24T06:19:02;100152.94;;;18.82;100.00
24788;BME280;12883;52.662;5.196;2023-07-24T06:21:28;100082.22;;;18.47;100.00
24788;BME280;12883;52.662;5.196;2023-07-24T06:23:53;100154.25;;;18.90;100.00
24788;BME280;12883;52.662;5.196;2023-07-24T06:26:18;100155.34;;;18.94;100.00
24788;BME280;12883;52.662;5.196;2023-07-24T06:28:44;100084.09;;;18.51;100.00
24788;BME280;12883;52.662;5.196;2023-07-24T06:31:09;100165.03;;;18.95;100.00
24788;BME280;12883;52.662;5.196;2023-07-24T06:33:34;100146.47;;;18.98;100.00
24788;BME280;12883;52.662;5.196;2023-07-24T06:36:00;100151.59;;;19.00;100.00
24788;BME280;12883;52.662;5.196;2023-07-24T06:38:25;100160.19;;;19.02;100.00
24788;BME280;12883;52.662;5.196;2023-07-24T06:40:50;100126.31;;;18.86;100.00
24788;BME280;12883;52.662;5.196;2023-07-24T06:43:16;100154.00;;;19.01;100.00
24788;BME280;12883;52.662;5.196;2023-07-24T06:45:41;100167.19;;;19.08;100.00
24788;BME280;12883;52.662;5.196;2023-07-24T06:48:06;100165.84;;;19.15;100.00
24788;BME280;12883;52.662;5.196;2023-07-24T06:50:32;100167.16;;;19.18;100.00
24788;BME280;12883;52.662;5.196;2023-07-24T06:52:57;100170.13;;;19.16;100.00
24788;BME280;12883;52.662;5.196;2023-07-24T06:55:22;100177.13;;;19.27;100.00
24788;BME280;12883;52.662;5.196;2023-07-24T06:57:47;100173.38;;;19.28;100.00
24788;BME280;12883;52.662;5.196;2023-07-24T07:00:13;100173.91;;;19.30;100.00
24788;BME280;12883;52.662;5.196;2023-07-24T07:02:39;100134.88;;;19.18;100.00
24788;BME280;12883;52.662;5.196;2023-07-24T07:05:05;100093.47;;;19.04;100.00
24788;BME280;12883;52.662;5.196;2023-07-24T07:07:30;100162.59;;;19.38;100.00
24788;BME280;12883;52.662;5.196;2023-07-24T07:09:55;100176.56;;;19.50;100.00
24788;BME280;12883;52.662;5.196;2023-07-24T07:12:21;100184.09;;;19.58;100.00
24788;BME280;12883;52.662;5.196;2023-07-24T07:14:46;100191.03;;;19.69;100.00
24788;BME280;12883;52.662;5.196;2023-07-24T07:17:12;100183.47;;;19.81;100.00
24788;BME280;12883;52.662;5.196;2023-07-24T07:19:37;100206.63;;;19.82;100.00
24788;BME280;12883;52.662;5.196;2023-07-24T07:22:02;100187.25;;;19.75;100.00
24788;BME280;12883;52.662;5.196;2023-07-24T07:24:28;100183.47;;;19.91;100.00
24788;BME280;12883;52.662;5.196;2023-07-24T07:26:53;100186.66;;;19.93;100.00
24788;BME280;12883;52.662;5.196;2023-07-24T07:29:18;100181.28;;;19.93;100.00
24788;BME280;12883;52.662;5.196;2023-07-24T07:31:44;100181.81;;;20.05;100.00
24788;BME280;12883;52.662;5.196;2023-07-24T07:34:09;100178.25;;;20.15;100.00
24788;BME280;12883;52.662;5.196;2023-07-24T07:36:34;100178.38;;;20.38;100.00
24788;BME280;12883;52.662;5.196;2023-07-24T07:39:00;100169.19;;;20.44;100.00
24788;BME280;12883;52.662;5.196;2023-07-24T07:41:25;100183.31;;;20.69;100.00
24788;BME280;12883;52.662;5.196;2023-07-24T07:43:50;100186.00;;;20.69;100.00
24788;BME280;12883;52.662;5.196;2023-07-24T07:46:16;100194.94;;;20.65;100.00
24788;BME280;12883;52.662;5.196;2023-07-24T07:48:41;100193.69;;;20.48;100.00
24788;BME280;12883;52.662;5.196;2023-07-24T07:51:06;100201.03;;;20.37;100.00
24788;BME280;12883;52.662;5.196;2023-07-24T07:53:32;100184.84;;;20.42;100.00
24788;BME280;12883;52.662;5.196;2023-07-24T07:55:58;100180.72;;;20.54;100.00
24788;BME280;12883;52.662;5.196;2023-07-24T07:58:24;100181.84;;;20.87;100.00
24788;BME280;12883;52.662;5.196;2023-07-24T08:00:50;100175.47;;;20.73;100.00
24788;BME280;12883;52.662;5.196;2023-07-24T08:03:15;100180.78;;;20.83;100.00
24788;BME280;12883;52.662;5.196;2023-07-24T08:05:40;100153.47;;;20.56;100.00
24788;BME280;12883;52.662;5.196;2023-07-24T08:08:06;100183.13;;;20.61;100.00
24788;BME280;12883;52.662;5.196;2023-07-24T08:10:31;99985.50;;;19.45;100.00
24788;BME280;12883;52.662;5.196;2023-07-24T08:12:56;100134.81;;;20.64;100.00
24788;BME280;12883;52.662;5.196;2023-07-24T08:15:22;100147.50;;;20.97;100.00
24788;BME280;12883;52.662;5.196;2023-07-24T08:17:47;100156.31;;;21.08;100.00
24788;BME280;12883;52.662;5.196;2023-07-24T08:20:12;100152.09;;;21.02;100.00
24788;BME280;12883;52.662;5.196;2023-07-24T08:22:38;100153.19;;;21.24;100.00
24788;BME280;12883;52.662;5.196;2023-07-24T08:25:03;100098.16;;;20.97;100.00
24788;BME280;12883;52.662;5.196;2023-07-24T08:27:29;100151.63;;;21.18;100.00
24788;BME280;12883;52.662;5.196;2023-07-24T08:29:54;100149.06;;;21.03;100.00
24788;BME280;12883;52.662;5.196;2023-07-24T08:32:20;100161.91;;;21.16;100.00
24788;BME280;12883;52.662;5.196;2023-07-24T08:34:45;100169.69;;;21.23;100.00
24788;BME280;12883;52.662;5.196;2023-07-24T08:37:11;100168.91;;;21.17;100.00
24788;BME280;12883;52.662;5.196;2023-07-24T08:39:37;100177.50;;;21.24;100.00
24788;BME280;12883;52.662;5.196;2023-07-24T08:42:13;100174.63;;;21.16;100.00
24788;BME280;12883;52.662;5.196;2023-07-24T08:44:39;100160.31;;;21.15;100.00
24788;BME280;12883;52.662;5.196;2023-07-24T08:47:06;100077.75;;;20.52;100.00
24788;BME280;12883;52.662;5.196;2023-07-24T08:49:34;100181.03;;;21.20;100.00
24788;BME280;12883;52.662;5.196;2023-07-24T08:52:01;100172.91;;;21.25;100.00
24788;BME280;12883;52.662;5.196;2023-07-24T08:54:26;100154.63;;;21.17;100.00
24788;BME280;12883;52.662;5.196;2023-07-24T08:56:52;100176.59;;;21.34;100.00
24788;BME280;12883;52.662;5.196;2023-07-24T08:59:17;100170.25;;;21.20;100.00
24788;BME280;12883;52.662;5.196;2023-07-24T09:01:43;100172.75;;;21.40;100.00
24788;BME280;12883;52.662;5.196;2023-07-24T09:04:09;100166.94;;;21.28;100.00
24788;BME280;12883;52.662;5.196;2023-07-24T09:06:34;100170.22;;;21.25;100.00
24788;BME280;12883;52.662;5.196;2023-07-24T09:09:00;100170.44;;;21.28;100.00
24788;BME280;12883;52.662;5.196;2023-07-24T09:11:26;100170.66;;;21.37;100.00
24788;BME280;12883;52.662;5.196;2023-07-24T09:13:51;100174.09;;;21.42;100.00
24788;BME280;12883;52.662;5.196;2023-07-24T09:16:21;100170.66;;;21.37;100.00
24788;BME280;12883;52.662;5.196;2023-07-24T09:18:47;100173.22;;;21.47;100.00
24788;BME280;12883;52.662;5.196;2023-07-24T09:21:13;100173.50;;;21.45;100.00
24788;BME280;12883;52.662;5.196;2023-07-24T09:23:38;100170.28;;;21.43;100.00
24788;BME280;12883;52.662;5.196;2023-07-24T09:26:08;100169.19;;;21.44;100.00
24788;BME280;12883;52.662;5.196;2023-07-24T09:28:34;100166.91;;;21.56;100.00
24788;BME280;12883;52.662;5.196;2023-07-24T09:31:00;100176.78;;;21.71;100.00
24788;BME280;12883;52.662;5.196;2023-07-24T09:33:35;100171.25;;;21.81;100.00
24788;BME280;12883;52.662;5.196;2023-07-24T09:36:02;100162.00;;;21.87;100.00
24788;BME280;12883;52.662;5.196;2023-07-24T09:38:28;100172.63;;;21.78;100.00
24788;BME280;12883;52.662;5.196;2023-07-24T09:40:56;100176.44;;;22.01;100.00
24788;BME280;12883;52.662;5.196;2023-07-24T09:43:24;100177.34;;;21.91;100.00
24788;BME280;12883;52.662;5.196;2023-07-24T09:45:51;100167.03;;;21.93;100.00
24788;BME280;12883;52.662;5.196;2023-07-24T09:48:18;100151.94;;;21.92;100.00
24788;BME280;12883;52.662;5.196;2023-07-24T09:50:49;100165.94;;;21.94;100.00
24788;BME280;12883;52.662;5.196;2023-07-24T09:55:49;100132.72;;;21.94;100.00
24788;BME280;12883;52.662;5.196;2023-07-24T09:58:18;100161.50;;;22.27;100.00
24788;BME280;12883;52.662;5.196;2023-07-24T10:00:44;100147.66;;;22.10;100.00
24788;BME280;12883;52.662;5.196;2023-07-24T10:03:10;100121.34;;;21.97;100.00
24788;BME280;12883;52.662;5.196;2023-07-24T10:05:36;100118.56;;;22.20;100.00
24788;BME280;12883;52.662;5.196;2023-07-24T10:08:01;100153.22;;;22.18;100.00
24788;BME280;12883;52.662;5.196;2023-07-24T10:10:27;100144.78;;;22.43;100.00
24788;BME280;12883;52.662;5.196;2023-07-24T10:12:54;100149.38;;;22.43;100.00
24788;BME280;12883;52.662;5.196;2023-07-24T10:15:20;100151.50;;;22.46;100.00
24788;BME280;12883;52.662;5.196;2023-07-24T10:17:46;100138.13;;;22.54;100.00
24788;BME280;12883;52.662;5.196;2023-07-24T10:20:11;100138.13;;;22.54;100.00
24788;BME280;12883;52.662;5.196;2023-07-24T10:22:40;100142.84;;;22.62;100.00
24788;BME280;12883;52.662;5.196;2023-07-24T10:25:08;100125.16;;;22.70;100.00
24788;BME280;12883;52.662;5.196;2023-07-24T10:27:42;100108.72;;;22.66;100.00
24788;BME280;12883;52.662;5.196;2023-07-24T10:30:09;100147.59;;;22.70;100.00
24788;BME280;12883;52.662;5.196;2023-07-24T10:32:45;100139.72;;;22.55;100.00
24788;BME280;12883;52.662;5.196;2023-07-24T10:35:10;100136.13;;;22.60;100.00
24788;BME280;12883;52.662;5.196;2023-07-24T10:37:37;100152.03;;;22.80;100.00
24788;BME280;12883;52.662;5.196;2023-07-24T10:40:06;100126.59;;;22.49;100.00
24788;BME280;12883;52.662;5.196;2023-07-24T10:42:31;100162.63;;;22.63;100.00
24788;BME280;12883;52.662;5.196;2023-07-24T10:45:08;100160.34;;;22.51;100.00
24788;BME280;12883;52.662;5.196;2023-07-24T10:47:34;100158.06;;;22.40;100.00
24788;BME280;12883;52.662;5.196;2023-07-24T10:50:00;100124.31;;;22.19;100.00
24788;BME280;12883;52.662;5.196;2023-07-24T10:52:31;100167.25;;;22.39;100.00
24788;BME280;12883;52.662;5.196;2023-07-24T10:55:00;100168.56;;;22.23;100.00
24788;BME280;12883;52.662;5.196;2023-07-24T10:57:27;100167.13;;;22.30;100.00
24788;BME280;12883;52.662;5.196;2023-07-24T10:59:53;100186.75;;;22.17;100.00
24788;BME280;12883;52.662;5.196;2023-07-24T11:02:18;100159.78;;;21.70;100.00
24788;BME280;12883;52.662;5.196;2023-07-24T11:04:43;100183.44;;;22.02;100.00
24788;BME280;12883;52.662;5.196;2023-07-24T11:07:09;100184.88;;;21.94;100.00
24788;BME280;12883;52.662;5.196;2023-07-24T11:09:36;100180.22;;;22.00;100.00
24788;BME280;12883;52.662;5.196;2023-07-24T11:12:13;100198.31;;;21.99;100.00
24788;BME280;12883;52.662;5.196;2023-07-24T11:14:49;100175.38;;;21.97;100.00
24788;BME280;12883;52.662;5.196;2023-07-24T11:17:15;100179.31;;;21.86;100.00
24788;BME280;12883;52.662;5.196;2023-07-24T11:19:40;100171.94;;;21.68;100.00
24788;BME280;12883;52.662;5.196;2023-07-24T11:22:06;100182.88;;;21.81;100.00
24788;BME280;12883;52.662;5.196;2023-07-24T11:24:32;100183.16;;;21.80;100.00
24788;BME280;12883;52.662;5.196;2023-07-24T11:26:57;100171.25;;;21.81;100.00
24788;BME280;12883;52.662;5.196;2023-07-24T11:29:23;100121.91;;;21.47;100.00
24788;BME280;12883;52.662;5.196;2023-07-24T11:31:54;100192.75;;;21.91;100.00
24788;BME280;12883;52.662;5.196;2023-07-24T11:34:20;100187.28;;;21.96;100.00
24788;BME280;12883;52.662;5.196;2023-07-24T11:36:45;100142.22;;;21.91;100.00
24788;BME280;12883;52.662;5.196;2023-07-24T11:39:11;100189.41;;;22.22;100.00
24788;BME280;12883;52.662;5.196;2023-07-24T11:41:36;100188.88;;;22.39;100.00
24788;BME280;12883;52.662;5.196;2023-07-24T11:44:02;100189.63;;;22.26;100.00
24788;BME280;12883;52.662;5.196;2023-07-24T11:46:29;100189.75;;;22.16;100.00
24788;BME280;12883;52.662;5.196;2023-07-24T11:48:57;100182.44;;;22.16;100.00
24788;BME280;12883;52.662;5.196;2023-07-24T11:51:23;100167.50;;;22.00;100.00
24788;BME280;12883;52.662;5.196;2023-07-24T11:53:51;100172.22;;;22.32;100.00
24788;BME280;12883;52.662;5.196;2023-07-24T11:56:17;100177.63;;;22.32;100.00
24788;BME280;12883;52.662;5.196;2023-07-24T11:58:44;100195.75;;;22.13;100.00
24788;BME280;12883;52.662;5.196;2023-07-24T12:01:12;100189.09;;;22.24;100.00
24788;BME280;12883;52.662;5.196;2023-07-24T12:03:37;100193.63;;;22.28;100.00
24788;BME280;12883;52.662;5.196;2023-07-24T12:06:02;100198.03;;;22.01;100.00
24788;BME280;12883;52.662;5.196;2023-07-24T12:08:34;100210.50;;;21.97;100.00
24788;BME280;12883;52.662;5.196;2023-07-24T12:11:00;100207.13;;;22.10;100.00
24788;BME280;12883;52.662;5.196;2023-07-24T12:13:25;100195.56;;;21.81;100.00
24788;BME280;12883;52.662;5.196;2023-07-24T12:15:51;100206.25;;;21.91;100.00
24788;BME280;12883;52.662;5.196;2023-07-24T12:18:16;100212.75;;;21.90;100.00
24788;BME280;12883;52.662;5.196;2023-07-24T12:20:41;100198.47;;;21.61;100.00
24788;BME280;12883;52.662;5.196;2023-07-24T12:23:07;100200.75;;;21.49;100.00
24788;BME280;12883;52.662;5.196;2023-07-24T12:25:32;100205.19;;;21.35;100.00
24788;BME280;12883;52.662;5.196;2023-07-24T12:27:57;100213.84;;;21.03;100.00
24788;BME280;12883;52.662;5.196;2023-07-24T12:30:23;100202.91;;;20.90;100.00
24788;BME280;12883;52.662;5.196;2023-07-24T12:32:48;100188.38;;;20.81;100.00
24788;BME280;12883;52.662;5.196;2023-07-24T12:35:15;100144.78;;;20.26;100.00
24788;BME280;12883;52.662;5.196;2023-07-24T12:37:41;100208.03;;;20.43;100.00